Itapemirim, Brazil
Current Conditions -  °F | °C
As of 4:00 PM on Thursday 27 Nov 2014 (Local Time) from SBCP Reporting Station
Broken Clouds Broken Clouds  
Wind Chill: 88°   Ceiling: 10000
Heat Index: 93°   Visibility: 6mi
Dew Point: 70°   Wind: 14mph
Humidity: 55%   Direction: 60°ENE
Pressure: 29.77"   Gusts: NA
Location:  21.01°S, 40.83°W
Report Text: SBCP 271800Z 06012KT 9999 SCT035 BKN100 31/21 Q1008
Loading
Personal Weather Stations






























Interactive Weather Map New forecast layout! Learn more

10-Day Weather Forecast

Advertisements
Track Severe Weather on mobile